Lake Grove, NY

8:53 AM EDT on August 20, 2019 (GMT -0400)
Nesconset Extreme | | Change Station

Elev 92 ft 40.85 °N, 73.13 °W | Updated 5 seconds ago

Partly Cloudy
Partly Cloudy
80.4 °F
Feels Like 80 °F
N
1.3
Wind Variable Wind from NNE
Gusts 2.5 mph

Today
High -- | Low -- °F
--% Chance of Precip.
Yesterday
High -- | Low -- °F
Precip. -- in
Pressure 30.09 in
Visibility 10.0 miles
Clouds Mostly Cloudy 25000 ft
Heat Index 80 °F
Dew Point 53 °F
Humidity 39%
Rainfall 0.00 in
Snow Depth Not available.
6:07 AM 7:43 PM
Waning Gibbous, 79% visible
METAR KISP 201156Z COR 02006KT 10SM BKN250 24/20 A3010 RMK AO2 SLP190 70029 T02440200 10244 20217 51018
Pressure 30.09 in
Visibility 10.0 miles
Clouds Mostly Cloudy 25000 ft
Heat Index 80 °F
Dew Point 53 °F
Humidity 39%
Rainfall 0.00 in
Snow Depth Not available.
6:07 AM 7:43 PM
Waning Gibbous, 79% visible
METAR KISP 201156Z COR 02006KT 10SM BKN250 24/20 A3010 RMK AO2 SLP190 70029 T02440200 10244 20217 51018

Get Severe Weather Alerts

Thanks for signing up!

Be on the lookout for a verification email in your inbox.

You'll start receiving the daily forecast at 6 AM.

×

10-Day Weather Forecast

Almanac

Astronomy

Aug. 20, 2019 Rise Set
Actual Time
Civil Twilight
Nautical Twilight
Astronomical Twilight
Moon
Length of Visible Light
Length of Day
Tomorrow will be .
, % of the Moon is Illuminated

Today's Extremes

State Highs State Lows

Community

WunderPhotos

Category 6

Welcome to Category 6. This is the collective home for Weather Underground's featured writeups by Dr. Jeff Masters (right), Bob Henson (left), Chris Burt, and other regular contributors.

Nearby

Air Quality

  Air Quality AQ Index Pollutant
Not available.

Snow Depth

Station Depth Elevation

Earthquake Activity

City Distance Mag. Time & Date
Minimum magnitude displayed is 2.5.

Coastal Water Temperatures

Place Temperature

Stations

Nearby Weather Stations

Station Location Temp. Windchill Dew Point Humidity Wind Precip. Elev Updated Type
                   

Watches & Warnings

There are currently no watches in effect.